Tiempo atmosférico en la estación meteorológica de Fuerteventura Aeropuerto, Las Palmas (25 m.)



Fecha
DESCASC
Temp. máxima en grados centígrados (hora)
DESCASC
Temp. mínima en grados centígrados (hora)
DESCASC
Temp. media en grados centígrados
DESCASC
Racha de viento máxima en m/sg (hora)
DESCASC
Velocidad máxima media en intervalos de 10 minutos(hora)
DESCASC
Precipitaciones diarias en mm
DESCASC
Precipitaciones de 00:00 a 06:00 en mm
DESCASC
Precipitaciones de 06:00 a 12:00 en mm
DESCASC
Precipitaciones de 12:00 a 18:00 en mm
DESCASC
Precipitaciones de 18:00 a 24:00 en mm
DESCASC
23-05-2018 25.4 (15:30) 17.9 (23:50) 21.6 14.44 (15:00) 10 (15:00) 0 0 0 0 0
22-05-2018 22.9 (19:10) 15.2 (05:10) 19 13.33 (20:10) 8.33 (20:10) 0 0 0 0 0
21-05-2018 23.5 (18:00) 17 (06:40) 20.3 12.78 (17:10) 7.22 (11:50) 0 0 0 0 0
20-05-2018 24.2 (15:30) 16.7 (00:00) 20.5 13.89 (17:50) 9.17 (16:10) 0 0 0 0 0
19-05-2018 23.2 (17:20) 17.4 (00:00) 20.3 13.33 (19:10) 8.89 (17:20) 0 0 0 0 0
18-05-2018 23.3 (14:10) 16.2 (00:00) 19.8 12.78 (15:30) 9.72 (16:10) 0 0 0 0 0
17-05-2018 25 (15:30) 17.1 (00:00) 21.1 13.89 (13:40) 8.89 (19:40) 0 0 0 0 0
16-05-2018 24.3 (15:00) 17.4 (00:00) 20.8 15 (18:30) 10.56 (09:40) 0 0 0 0 0
15-05-2018 24.4 (16:00) 16.6 (00:00) 20.5 14.44 (20:30) 11.11 (20:30) 0 0 0 0 0
14-05-2018 23 (18:40) 15.4 (00:00) 19.2 12.78 (18:50) 9.72 (19:20) 0 0 0 0 0
13-05-2018 21.6 (13:40) 16.9 (00:00) 19.3 16.11 (07:40) 12.22 (07:50) 0 0 0 0 0
12-05-2018 22.2 (14:20) 16.3 (00:00) 19.3 15.28 (16:30) 12.22 (16:50) 0 0 0 0 0
11-05-2018 22.3 (14:20) 17.3 (05:10) 19.8 13.33 (11:00) 10.83 (12:30) 0 0 0 0 0
10-05-2018 22.1 (15:10) 17.8 (00:00) 19.9 12.78 (08:30) 10.28 (08:40) 0 0 0 0 0
09-05-2018 22.9 (14:50) 16.8 (00:00) 19.8 13.33 (19:30) 10.28 (20:50) 0 0 0 0 0
08-05-2018 22.9 (17:10) 17.3 (00:00) 20.1 13.89 (16:30) 10.28 (18:10) 0 0 0 0 0
07-05-2018 23.8 (17:40) 18 (00:00) 20.9 13.89 (14:20) 8.89 (18:40) 0 0 0 0 0
06-05-2018 24.2 (15:50) 17.6 (00:00) 20.9 12.5 (14:40) 8.33 (15:00) 0 0 0 0 0
05-05-2018 23.4 (14:20) 17.5 (00:00) 20.4 13.33 (18:00) 8.33 (13:00) 0 0 0 0 0
04-05-2018 22.6 (14:10) 16.7 (00:00) 19.7 13.89 (12:20) 10.56 (19:20) 0 0 0 0 0
03-05-2018 24.1 (16:10) 17.2 (00:00) 20.7 11.67 (15:20) 8.89 (17:50) 0 0 0 0 0
02-05-2018 22.8 (17:10) 14.7 (00:00) 18.7 13.89 (09:30) 9.17 (16:20) 0 0 0 0 0
01-05-2018 23.3 (17:20) 15.8 (04:10) 19.5 13.89 (13:10) 10.56 (13:10) 0 0 0 0 0
30-04-2018 21.6 (15:20) 15.7 (00:00) 18.7 13.89 (17:50) 10.83 (17:50) 0 0 0 0 0
29-04-2018 21.7 (17:30) 15.9 (00:00) 18.8 13.33 (00:30) 10.83 (03:00) 0 0 0 0 0
28-04-2018 24.1 (14:20) 15.8 (00:00) 20 15 (15:40) 11.39 (18:40) 0 0 0 0 0
27-04-2018 23.9 (16:40) 16.3 (00:00) 20.1 13.89 (18:30) 9.72 (03:20) 0 0 0 0 0
26-04-2018 23.5 (16:30) 17.1 (00:00) 20.3 15.28 (20:10) 12.22 (20:10) 0 0 0 0 0
25-04-2018 23.5 (14:30) 17.8 (00:00) 20.6 15.28 (12:50) 12.78 (12:50) 0 0 0 0 0
24-04-2018 24.5 (15:00) 16.7 (00:00) 20.6 15.28 (18:00) 11.94 (23:40) 0 0 0 0 0

Gráficas

Temp. máximas Temp. mínimas Temp. medias Precipitaciones Rachas de viento máximas Velocidades máximas media en intervalos de 10 minutos

Datos horarios

Fecha y hora oficial Temperatura (ºC) Velocidad del viento (km/h) Dirección del viento Racha (km/h) Dirección de racha Precipitación (mm) Presión (hPa) Tendencia (hPa) Humedad (%)
2018-05-23 23:00:00 18.3 14 Norte 26 Norte 0 1015.6 1.3 64
2018-05-23 22:00:00 18.8 20 Norte 33 Oeste 0 1015.3 1.8 62
2018-05-23 21:00:00 19.4 21 Norte 37 Noroeste 0 1014.8 1.2 57
2018-05-23 20:00:00 20.4 21 Noroeste 48 Noroeste 0 1014.3 0.9 55
2018-05-23 19:00:00 21.7 34 Noroeste 46 Noroeste 0 1013.5 0.1 49
2018-05-23 18:00:00 22.4 28 Noroeste 46 Oeste 0 1013.6 0 47
2018-05-23 17:00:00 23.4 33 Noroeste 48 Noroeste 0 1013.4 -0.2 39
2018-05-23 16:00:00 23.6 32 Oeste 50 Noroeste 0 1013.4 -0.9 40
2018-05-23 15:00:00 24.5 36 Noroeste 52 Noroeste 0 1013.6 -0.9 41
2018-05-23 14:00:00 24.4 31 Noroeste 46 Noroeste 0 1013.6 -0.6 39
2018-05-23 13:00:00 23.7 21 Oeste 37 Nordeste 0 1014.3 0.4 43
2018-05-23 12:00:00 21.3 22 Nordeste 35 Nordeste 0 1014.5 0.8 71
2018-05-23 11:00:00 20.9 18 Nordeste 26 Nordeste 0 1014.2 0.6 71
2018-05-23 10:00:00 20.6 17 Nordeste 22 Nordeste 0 1013.9 0.8 65
2018-05-23 09:00:00 19.3 14 Norte 24 Norte 0 1013.7 0.9 66
2018-05-23 08:00:00 18.8 19 Norte 26 Norte 0 1013.6 1 73
2018-05-23 07:00:00 18.6 8 Norte 15 Noroeste 0 1013.1 0.5 78
2018-05-23 06:00:00 18.2 8 Noroeste 17 Norte 0 1012.8 0 80
2018-05-23 05:00:00 19 9 Norte 17 Norte 0 1012.6 -0.9 78
2018-05-23 04:00:00 19.2 13 Norte 15 Norte 0 1012.6 -1.3 80
2018-05-23 03:00:00 19.6 7 Noroeste 17 Oeste 0 1012.8 -1.2 80
2018-05-23 02:00:00 19.5 10 Norte 17 Oeste 0 1013.5 -0.4 76
2018-05-23 01:00:00 20.1 12 Norte 17 Noroeste 0 1013.9 0.3 74
2018-05-23 00:00:00 20.6 12 Noroeste 24 Noroeste 0 1014 1 72
2018-05-22 23:00:00 21 12 Noroeste 24 Norte 0 1013.9 1.3 72
2018-05-22 22:00:00 21 20 Norte 30 Norte 0 1013.6 1.4 70
2018-05-22 21:00:00 21 18 Noroeste 48 Oeste 0 1013 0.6 73
2018-05-22 20:00:00 21.5 26 Oeste 42 Oeste 0 1012.6 0.2 72
2018-05-22 19:00:00 21.9 14 Noroeste 33 Oeste 0 1012.2 -0.5 66
2018-05-22 18:00:00 20.8 16 Sudeste 22 Sudeste 0 1012.4 -0.4 67
2018-05-22 17:00:00 21.1 16 Sudeste 24 Sudeste 0 1012.4 -0.6 63
2018-05-22 16:00:00 21.6 18 Sudeste 24 Sudeste 0 1012.7 -0.6 62
2018-05-22 15:00:00 21.6 17 Sudeste 26 Sudeste 0 1012.8 -0.3 63
2018-05-22 14:00:00 21.1 16 Este 24 Este 0 1013 -0.3 64
2018-05-22 13:00:00 20.9 18 Este 28 Este 0 1013.3 0 62
2018-05-22 12:00:00 21 23 Nordeste 28 Nordeste -- 1013.1 -0.2 65
2018-05-22 11:00:00 21.4 15 Nordeste 28 Norte 0 1013.3 0.2 58
2018-05-22 10:00:00 20.5 13 Norte 22 Norte 0 1013.3 0.7 57
2018-05-22 09:00:00 19.3 19 Norte 28 Norte 0 1013.3 0.8 63
2018-05-22 08:00:00 18.2 14 Norte 18 Nordeste 0 1013.1 0.7 76
2018-05-22 07:00:00 16.4 4 Noroeste 15 Oeste 0 1012.6 0.3 76
2018-05-22 06:00:00 15.2 7 Noroeste 11 Noroeste 0 1012.5 0.2 77
2018-05-22 05:00:00 15.6 5 Oeste 11 Noroeste 0 1012.4 -0.5 74
2018-05-22 04:00:00 16.7 10 Noroeste 21 Noroeste 0 1012.3 -1.1 73
2018-05-22 03:00:00 17.1 16 Noroeste 22 Noroeste 0 1012.3 -1.4 72
2018-05-22 02:00:00 17.1 15 Norte 18 Norte 0 1012.9 -0.5 74
2018-05-22 01:00:00 17.1 10 Noroeste 17 Norte 0 1013.4 0.4 72
2018-05-22 00:00:00 17.6 12 Norte 24 Noroeste 0 1013.7 1.3 71
2018-05-21 23:00:00 18.2 12 Noroeste 22 Norte 0 1013.4 1.5 69
2018-05-21 22:00:00 19 18 Norte 28 Norte 0 1013 1.4 65
2018-05-21 21:00:00 19.5 21 Norte 32 Norte 0 1012.4 1.2 61
2018-05-21 20:00:00 20.7 24 Norte 32 Norte 0 1011.9 0.3 57
2018-05-21 19:00:00 21.9 21 Norte 41 Noroeste 0 1011.6 -0.5 51
2018-05-21 18:00:00 23.2 24 Noroeste 46 Noroeste 0 1011.2 -0.9 48
2018-05-21 17:00:00 22.1 25 Norte 41 Noroeste 0 1011.6 -1 52
2018-05-21 16:00:00 22.3 26 Norte 37 Norte 0 1012.1 -0.7 49
2018-05-21 15:00:00 21.8 24 Norte 39 Noroeste 0 1012.1 -0.5 50
2018-05-21 14:00:00 21.4 26 Norte 37 Norte 0 1012.6 -0.2 54
2018-05-21 13:00:00 21 21 Nordeste 33 Nordeste 0 1012.8 0 64
2018-05-21 12:00:00 21.2 25 Nordeste 33 Nordeste 0 1012.6 0.1 65
2018-05-21 11:00:00 19.3 9 Nordeste 22 Norte 0 1012.8 0.7 71
2018-05-21 10:00:00 19.2 14 Norte 26 Norte 0 1012.8 1.1 66
2018-05-21 09:00:00 18.5 19 Norte 24 Norte 0 1012.5 1.1 70
2018-05-21 08:00:00 18.1 11 Norte 26 Norte 0 1012.1 0.6 71
2018-05-21 07:00:00 17.4 15 Noroeste 21 Noroeste 0 1011.7 0 70
2018-05-21 06:00:00 17.6 14 Norte 28 Norte 0 1011.4 -0.7 72
2018-05-21 05:00:00 18.3 18 Norte 22 Norte 0 1011.5 -1 69
2018-05-21 04:00:00 18 14 Norte 21 Noroeste 0 1011.7 -1.3 67
2018-05-21 03:00:00 18.1 17 Norte 28 Norte 0 1012.1 -1 70
2018-05-21 02:00:00 17.8 13 Norte 35 Norte 0 1012.5 -0.3 77
2018-05-21 01:00:00 18.5 15 Norte 21 Norte 0 1013 0.5 67
2018-05-21 00:00:00 18.3 12 Norte 24 Noroeste 0 1013.1 1 69
2018-05-20 23:00:00 18.4 15 Norte 35 Noroeste 0 1012.8 1.2 64
2018-05-20 22:00:00 18.7 24 Norte 33 Norte 0 1012.5 1 63
2018-05-20 21:00:00 19.5 24 Norte 42 Norte 0 1012.1 0.8 59
2018-05-20 20:00:00 20.3 25 Norte 37 Norte 0 1011.6 0.3 55
2018-05-20 19:00:00 21.5 27 Norte 41 Norte 0 1011.5 0 50
2018-05-20 18:00:00 22.7 28 Norte 50 Noroeste 0 1011.3 -0.9 44
2018-05-20 17:00:00 23.8 30 Norte 46 Norte 0 1011.3 -1.2 39
2018-05-20 16:00:00 23.9 32 Norte 48 Norte 0 1011.5 -1.5 37
2018-05-20 15:00:00 23.6 29 Norte 41 Norte 0 1012.2 -1.1 39
2018-05-20 14:00:00 21.8 26 Nordeste 39 Nordeste 0 1012.5 -0.8 56
2018-05-20 13:00:00 22.1 24 Norte 39 Norte 0 1013 -0.3 45
2018-05-20 12:00:00 20.4 25 Nordeste 39 Nordeste 0 1013.3 0.3 56
2018-05-20 11:00:00 19.3 23 Nordeste 37 Norte 0 1013.3 0.7 66
2018-05-20 10:00:00 19.3 23 Norte 32 Norte 0 1013.3 0.9 67
2018-05-20 09:00:00 18.4 19 Norte 28 Norte 0 1013 0.7 73
2018-05-20 08:00:00 18.1 18 Norte 28 Norte 0 1012.6 0 73
2018-05-20 07:00:00 17.6 11 Noroeste 17 Noroeste 0 1012.4 -0.5 69
2018-05-20 06:00:00 16.8 13 Noroeste 18 Norte 0 1012.3 -1.1 70
2018-05-20 05:00:00 17.7 14 Norte 18 Norte 0 1012.6 -1.3 73
2018-05-20 04:00:00 17.6 8 Norte 13 Norte 0 1012.9 -1.2 72
2018-05-20 03:00:00 17.4 11 Norte 15 Noroeste 0 1013.4 -1 72
2018-05-20 02:00:00 17.3 12 Norte 26 Norte 0 1013.9 0 73
2018-05-20 01:00:00 17.9 18 Norte 24 Norte 0 1014.1 0.8 72
2018-05-20 00:00:00 17.5 19 Norte 32 Norte 0 1014.4 1.4 71
2018-05-19 23:00:00 17.8 21 Norte 35 Norte 0 1013.9 1.5 70
2018-05-19 22:00:00 18.4 25 Norte 39 Norte 0 1013.3 0.9 66
2018-05-19 21:00:00 19.1 30 Norte 42 Noroeste 0 1013 0.4 64
2018-05-19 20:00:00 20.4 31 Norte 48 Norte 0 1012.4 -0.3 57
2018-05-19 19:00:00 21.7 24 Norte 41 Noroeste 0 1012.4 -1.3 53
2018-05-19 18:00:00 22.3 25 Norte 45 Norte 0 1012.6 -1.3 51
2018-05-19 17:00:00 22.6 27 Norte 42 Norte 0 1012.7 -1.7 49
2018-05-19 16:00:00 22.2 27 Norte 39 Norte 0 1013.7 -1.2 53
2018-05-19 15:00:00 21.9 23 Nordeste 33 Nordeste 0 1013.9 -1 57
2018-05-19 14:00:00 20.9 26 Nordeste 33 Nordeste 0 1014.4 -0.2 64
2018-05-19 13:00:00 20.8 22 Norte 33 Norte 0 1014.9 0.6 59
2018-05-19 12:00:00 20 21 Norte 30 Norte 0 1014.9 1.2 66
2018-05-19 11:00:00 19.5 25 Norte 35 Norte 0 1014.6 1.2 67
2018-05-19 10:00:00 19.5 20 Nordeste 33 Norte 0 1014.3 1.3 67
2018-05-19 09:00:00 18.9 26 Norte 41 Norte 0 1013.7 0.9 67
2018-05-19 08:00:00 18.5 26 Norte 39 Norte 0 1013.4 0.6 66
2018-05-19 07:00:00 18.4 23 Norte 35 Norte 0 1013 0.1 68
2018-05-19 06:00:00 18.3 22 Norte 37 Norte 0 1012.8 -0.4 71
2018-05-19 05:00:00 18.5 29 Norte 39 Norte 0 1012.8 -0.8 68
2018-05-19 04:00:00 18.7 23 Norte 39 Norte 0 1012.9 -0.8 68
2018-05-19 03:00:00 18.8 25 Norte 35 Norte 0 1013.2 -0.7 68
2018-05-19 02:00:00 18.8 26 Norte -- -- -- 1013.6 0 67
2018-05-19 01:00:00 19 27 Norte 35 Norte 0 1013.7 0.5 69
2018-05-19 00:00:00 19 27 Norte 35 Norte 0 1013.9 1 68
2018-05-18 23:00:00 19.1 26 Norte 37 Noroeste 0 1013.6 1.2 69
2018-05-18 22:00:00 19.3 28 Norte 37 Norte 0 1013.2 0.9 67
2018-05-18 21:00:00 19.7 28 Norte 39 Norte 0 1012.9 0.4 67
2018-05-18 20:00:00 20.2 30 Norte 45 Norte 0 1012.4 -0.1 64
2018-05-18 19:00:00 20.9 30 Norte 45 Noroeste 0 1012.3 -0.4 61
2018-05-18 18:00:00 21.7 30 Norte 39 Norte 0 1012.5 -0.2 57
2018-05-18 17:00:00 22.1 29 Norte 46 Nordeste 0 1012.5 -0.6 55
2018-05-18 16:00:00 21.8 34 Nordeste 46 Nordeste 0 1012.7 -0.7 63
2018-05-18 15:00:00 22.8 35 Nordeste 45 Nordeste 0 1012.7 -0.8 57
2018-05-18 14:00:00 22.8 27 Nordeste 39 Nordeste 0 1013.1 -0.3 54
2018-05-18 13:00:00 22.3 27 Nordeste 37 Nordeste 0 1013.4 0.1 57
2018-05-18 12:00:00 21.8 27 Nordeste 39 Nordeste 0 1013.5 0.8 57
2018-05-18 11:00:00 21 25 Nordeste 32 Nordeste 0 1013.4 0.8 58
2018-05-18 10:00:00 20.6 20 Norte 35 Norte 0 1013.3 1.2 58
2018-05-18 09:00:00 19.2 25 Norte 35 Norte 0 1012.7 0.9 60
2018-05-18 08:00:00 17.3 16 Norte 33 Noroeste 0 1012.6 0.7 68
2018-05-18 07:00:00 16.2 14 Noroeste 21 Norte 0 1012.1 0.2 69
2018-05-18 06:00:00 16.6 14 Norte 21 Norte 0 1011.8 -0.4 74
2018-05-18 05:00:00 16.6 13 Norte 21 Noroeste 0 1011.9 -1 72
2018-05-18 04:00:00 16.9 18 Noroeste 22 Norte 0 1011.9 -1.6 70
2018-05-18 03:00:00 16.9 18 Norte 26 Norte 0 1012.2 -1.3 68
2018-05-18 02:00:00 17.2 17 Norte -- -- -- 1012.9 -0.3 69
2018-05-18 01:00:00 17.6 14 Noroeste 30 Norte 0 1013.5 0.8 68
2018-05-18 00:00:00 18.2 18 Norte 33 Norte 0 1013.5 1.2 72
2018-05-17 23:00:00 18 26 Norte 35 Norte 0 1013.2 1.6 69
2018-05-17 22:00:00 18.5 27 Norte 37 Norte 0 1012.7 1.4 65
2018-05-17 21:00:00 19.3 22 Norte 39 Norte 0 1012.3 0.9 63
2018-05-17 20:00:00 20.7 29 Norte 41 Norte 0 1011.6 0.1 60
2018-05-17 19:00:00 21.9 30 Norte 48 Norte 0 1011.3 -0.4 55
2018-05-17 18:00:00 23 29 Noroeste 42 Norte 0 1011.4 -0.4 51
2018-05-17 17:00:00 23.7 26 Norte 42 Norte 0 1011.5 -0.8 48
2018-05-17 16:00:00 23.7 27 Norte 42 Noroeste 0 1011.7 -0.7 49
2018-05-17 15:00:00 23.9 22 Norte 45 Norte 0 1011.8 -0.8 47
2018-05-17 14:00:00 23.8 26 Norte 50 Norte 0 1012.3 -0.1 48
2018-05-17 13:00:00 23 23 Norte 41 Norte 0 1012.4 0.4 50
2018-05-17 12:00:00 21.9 27 Norte 41 Norte 0 1012.6 0.9 54
2018-05-17 11:00:00 21.1 28 Norte 42 Noroeste 0 1012.4 0.9 56
2018-05-17 10:00:00 20.1 28 Norte 41 Norte 0 1012 0.6 59
2018-05-17 09:00:00 19.5 24 Norte 33 Noroeste 0 1011.7 0.7 65
2018-05-17 08:00:00 18.2 18 Norte 33 Norte 0 1011.5 0.3 68
2018-05-17 07:00:00 18 26 Norte 37 Norte 0 1011.4 0.1 67
2018-05-17 06:00:00 17.9 23 Norte 32 Norte 0 1011 -0.6 69
2018-05-17 05:00:00 17.2 20 Norte 28 Norte 0 1011.2 -0.9 68
2018-05-17 04:00:00 17.5 23 Norte 33 Norte 0 1011.3 -1.5 66
2018-05-17 03:00:00 17.6 22 Norte 33 Norte 0 1011.6 -1.5 71
2018-05-17 02:00:00 17.9 21 Norte -- -- -- 1012.1 -0.6 71
2018-05-17 01:00:00 17.9 22 Norte 33 Norte 0 1012.8 0.5 70
2018-05-17 00:00:00 18.3 22 Norte 33 Norte 0 1013.1 1.4 69
2018-05-16 23:00:00 18.3 23 Norte 39 Norte 0 1012.7 1.9 70
2018-05-16 22:00:00 18.7 30 Norte 39 Noroeste 0 1012.3 1.8 66
2018-05-16 21:00:00 19.2 29 Norte 48 Noroeste 0 1011.7 1.1 65
2018-05-16 20:00:00 20.1 33 Norte 48 Noroeste 0 1010.8 0.2 61
2018-05-16 19:00:00 21.8 34 Norte 54 Norte 0 1010.5 -0.2 54
2018-05-16 18:00:00 22.9 36 Norte 46 Noroeste 0 1010.6 -0.3 52
2018-05-16 17:00:00 23.9 31 Norte 48 Norte 0 1010.6 -0.6 49
2018-05-16 16:00:00 23.6 31 Noroeste 46 Norte 0 1010.7 -0.7 50
2018-05-16 15:00:00 23.9 32 Norte 50 Norte 0 1010.9 -0.5 49
2018-05-16 14:00:00 23.6 36 Norte 52 Norte 0 1011.2 0.2 50
2018-05-16 13:00:00 23.1 34 Noroeste 46 Norte 0 1011.4 0.7 51
2018-05-16 12:00:00 22.9 33 Norte 45 Norte 0 1011.4 0.7 51
2018-05-16 11:00:00 21.8 33 Norte 45 Norte 0 1011 0.6 57
2018-05-16 10:00:00 20.9 29 Norte 50 Norte 0 1010.7 0.5 61
2018-05-16 09:00:00 19.2 24 Norte 33 Norte 0 1010.7 0.5 70
2018-05-16 08:00:00 17.8 24 Norte 33 Norte 0 1010.4 0.1 76
2018-05-16 07:00:00 17.8 19 Norte 33 Norte 0 1010.2 -0.4 77
2018-05-16 06:00:00 18.2 21 Norte 33 Norte 0 1010.2 -0.7 76
2018-05-16 05:00:00 18.5 23 Norte 32 Norte 0 1010.3 -1.1 74
2018-05-16 04:00:00 18.5 24 Norte 33 Noroeste 0 1010.6 -1.2 71
2018-05-16 03:00:00 18.4 18 Norte 33 Norte 0 1010.9 -1.3 71
2018-05-16 02:00:00 17.9 17 Noroeste -- -- -- 1011.4 -0.6 65
2018-05-16 01:00:00 18.2 22 Norte 35 Norte 0 1011.8 0.3 73
2018-05-16 00:00:00 18.1 30 Norte 45 Norte 0 1012.2 1.1 70
2018-05-15 23:00:00 18.2 30 Norte 42 Norte 0 1012 1.1 69
2018-05-15 22:00:00 18.5 28 Norte 48 Norte 0 1011.5 0.9 69
2018-05-15 21:00:00 19 30 Norte 52 Norte 0 1011.1 0.6 67
2018-05-15 20:00:00 19.8 37 Norte 50 Norte 0 1010.9 0.4 64
2018-05-15 19:00:00 21.4 36 Norte 45 Norte 0 1010.6 -0.2 58
2018-05-15 18:00:00 23 33 Norte 50 Noroeste 0 1010.5 -0.7 52
2018-05-15 17:00:00 23.8 33 Norte 46 Norte 0 1010.5 -1.4 52
2018-05-15 16:00:00 24.1 35 Norte 48 Norte 0 1010.8 -1.5 51
2018-05-15 15:00:00 23 35 Nordeste 45 Nordeste 0 1011.2 -1.3 60
2018-05-15 14:00:00 21.7 28 Nordeste 37 Nordeste 0 1011.9 -0.7 69
2018-05-15 13:00:00 21.8 24 Nordeste 37 Nordeste 0 1012.3 -0.2 67
2018-05-15 12:00:00 21.5 28 Nordeste 37 Nordeste 0 1012.5 0.2 64
2018-05-15 11:00:00 20.8 29 Nordeste 37 Norte 0 1012.6 0.6 66
2018-05-15 10:00:00 19.5 31 Norte 39 Norte 0 1012.5 0.9 67
2018-05-15 09:00:00 18.6 29 Norte 37 Norte 0 1012.3 1.2 71
2018-05-15 08:00:00 17.7 24 Norte 33 Nordeste 0 1012 1 76
2018-05-15 07:00:00 17.1 21 Norte 30 Norte 0 1011.6 0.4 79
2018-05-15 06:00:00 16.6 23 Norte 35 Norte 0 1011.1 -0.6 80
2018-05-15 05:00:00 16.8 27 Norte 35 Norte 0 1011 -1.2 80
2018-05-15 04:00:00 16.9 27 Norte 39 Norte 0 1011.2 -1.7 79
2018-05-15 03:00:00 17 23 Norte 35 Norte 0 1011.7 -1.4 77
2018-05-15 02:00:00 17.2 24 Norte -- -- -- 1012.2 -1 76
2018-05-15 01:00:00 17.4 25 Norte 42 Norte 0 1012.9 -0.2 76
2018-05-15 00:00:00 17.8 31 Norte 41 Norte 0 1013.1 0.4 74
2018-05-14 23:00:00 18 28 Norte 39 Norte 0 1013.2 1 71
2018-05-14 22:00:00 18.3 28 Norte 41 Norte 0 1013.1 1.3 72
2018-05-14 21:00:00 19.3 28 Norte 39 Norte 0 1012.7 0.8 67
2018-05-14 20:00:00 21 31 Norte 45 Norte 0 1012.2 0.1 59
2018-05-14 19:00:00 22.5 34 Norte 46 Norte 0 1011.8 -0.5 55
2018-05-14 18:00:00 21.7 27 Nordeste 39 Nordeste 0 1011.9 -1.1 68
2018-05-14 17:00:00 21.8 27 Nordeste 37 Nordeste 0 1012.1 -1.2 69
2018-05-14 16:00:00 22.1 27 Nordeste 37 Nordeste 0 1012.3 -1.3 66
2018-05-14 15:00:00 21.8 28 Nordeste 39 Nordeste 0 1013 -1 65
2018-05-14 14:00:00 21.6 30 Nordeste 39 Nordeste 0 1013.3 -0.7 64
2018-05-14 13:00:00 21.2 31 Nordeste 37 Nordeste 0 1013.6 0 64
2018-05-14 12:00:00 21.1 26 Nordeste 35 Norte 0 1014 0.6 61
2018-05-14 11:00:00 19.7 27 Nordeste 39 Nordeste 0 1014 0.8 63
2018-05-14 10:00:00 19.1 31 Nordeste 41 Norte 0 1013.6 0.8 65
2018-05-14 09:00:00 18.2 30 Norte 39 Norte 0 1013.4 0.5 69
2018-05-14 08:00:00 16.2 24 Norte 35 Norte 0 1013.2 0.5 75
2018-05-14 07:00:00 15.6 25 Norte 35 Norte 0 1012.8 0 77
2018-05-14 06:00:00 15.5 21 Norte 32 Norte 0 1012.9 -0.6 76
2018-05-14 05:00:00 15.7 25 Norte 33 Norte 0 1012.7 -1.6 76
2018-05-14 04:00:00 15.7 25 Norte 35 Norte 0 1012.8 -2.2 76
2018-05-14 03:00:00 15.9 26 Norte 32 Norte 0 1013.5 -1.7 75
2018-05-14 02:00:00 16.1 22 Norte -- -- -- 1014.3 -0.5 74
2018-05-14 01:00:00 16.7 30 Norte 42 Norte 0 1015 0.5 75
2018-05-14 00:00:00 17 29 Norte 41 Norte 0 1015.2 1.1 74
2018-05-11 19:00:00 19.5 35 Nordeste 45 Nordeste 0 1015.6 -0.4 70
2018-05-11 18:00:00 20.4 33 Nordeste 42 Nordeste 0 1015.5 -0.7 65
2018-05-11 17:00:00 21.2 31 Nordeste 39 Nordeste 0 1015.6 -0.8 63
2018-05-11 16:00:00 21.4 30 Nordeste 39 Nordeste 0 1016 -0.2 63
2018-05-11 15:00:00 21.5 29 Nordeste 39 Nordeste 0 1016.2 -0.2 61
2018-05-11 14:00:00 21.6 30 Nordeste 42 Nordeste 0 1016.4 -0.2 62
2018-05-11 13:00:00 21.6 34 Nordeste 48 Nordeste 0 1016.2 -0.2 61
2018-05-11 12:00:00 21.1 30 Nordeste 45 Nordeste 0 1016.4 0.2 62
2018-05-11 11:00:00 20.1 36 Nordeste 48 Nordeste 0 1016.6 0.9 62
2018-05-11 10:00:00 18.9 35 Nordeste 45 Nordeste 0 1016.4 1.4 65
2018-05-11 09:00:00 18.2 31 Nordeste 42 Nordeste 0 1016.2 1.7 65
2018-05-11 08:00:00 17.6 30 Norte 42 Nordeste 0 1015.7 1.4 67
2018-05-11 07:00:00 17.4 30 Norte 42 Nordeste 0 1015 0.5 66
2018-05-11 06:00:00 17.5 28 Norte 39 Norte 0 1014.5 -0.5 66
2018-05-11 05:00:00 17.5 25 Norte 39 Norte 0 1014.3 -1.5 66
2018-05-11 04:00:00 17.6 28 Norte 39 Norte 0 1014.5 -1.5 66
2018-05-11 03:00:00 17.7 31 Norte 41 Norte 0 1015 -1.1 65
2018-05-11 02:00:00 17.8 26 Norte 39 Norte 0 1015.8 0 65
2018-05-11 01:00:00 17.8 23 Norte 33 Norte 0 1016 0.9 65
2018-05-11 00:00:00 17.8 25 Norte 35 Norte 0 1016.1 1.6 65
2018-05-10 23:00:00 18 28 Norte 41 Norte 0 1015.8 1.7 67
2018-05-10 22:00:00 18.3 32 Norte 45 Norte 0 1015.1 1.4 63
2018-05-10 21:00:00 18.8 30 Norte 41 Norte 0 1014.5 0.7 64
2018-05-10 20:00:00 19.5 31 Norte 45 Norte 0 1014.1 0.3 60
2018-05-10 19:00:00 20.7 32 Norte 45 Norte 0 1013.7 -0.1 54
2018-05-10 18:00:00 20.4 33 Nordeste 45 Nordeste 0 1013.8 -0.7 66
2018-05-10 17:00:00 21.3 30 Nordeste 42 Nordeste 0 1013.8 -0.9 61
2018-05-10 16:00:00 21.2 35 Nordeste 45 Nordeste 0 1013.8 -1.5 62
2018-05-10 15:00:00 21.6 29 Nordeste 42 Nordeste 0 1014.5 -0.7 61
2018-05-10 14:00:00 21.5 37 Nordeste 46 Nordeste 0 1014.7 -0.5 58
2018-05-10 13:00:00 21 32 Nordeste 41 Nordeste 0 1015.3 0 62
2018-05-10 12:00:00 21.4 27 Nordeste 39 Nordeste 0 1015.2 -0.1 64
2018-05-10 11:00:00 21.4 31 Nordeste 41 Nordeste 0 1015.2 0.3 58
2018-05-10 10:00:00 19.9 32 Nordeste 45 Norte 0 1015.3 1 64
2018-05-10 09:00:00 18.4 32 Norte 46 Norte 0 1015.3 1.5 66
2018-05-10 08:00:00 18.3 29 Norte 37 Norte 0 1014.9 0.9 71
2018-05-10 07:00:00 18.1 22 Norte 39 Norte 0 1014.3 0.4 69
2018-05-10 06:00:00 18.1 30 Norte 39 Norte 0 1013.8 -0.4 70
2018-05-10 05:00:00 18.1 24 Norte 41 Norte 0 1014 -0.9 71
2018-05-10 04:00:00 18.2 29 Norte 37 Norte 0 1013.9 -1.6 73
2018-05-10 03:00:00 18.3 22 Norte 32 Norte 0 1014.2 -1.5 73
2018-05-10 02:00:00 18.1 20 Norte 35 Norte 0 1014.9 -0.7 71
2018-05-10 01:00:00 18 26 Norte 41 Norte 0 1015.5 0.4 73
2018-05-10 00:00:00 18.3 30 Norte 45 Norte 0 1015.7 0.9 74
2018-05-09 23:00:00 18.4 27 Norte 39 Norte 0 1015.6 1 72
2018-05-09 22:00:00 18.8 32 Norte 42 Norte 0 1015.1 1.1 71
2018-05-09 21:00:00 18.9 32 Norte 46 Norte 0 1014.8 0.6 66
2018-05-09 20:00:00 19.7 32 Norte 48 Norte 0 1014.6 0 67
2018-05-09 19:00:00 20.3 33 Norte 45 Norte 0 1014 -0.7 65
2018-05-09 18:00:00 21 35 Norte 46 Norte 0 1014.2 -0.6 62
2018-05-09 17:00:00 20.2 28 Nordeste 37 Nordeste 0 1014.6 -0.4 74
2018-05-09 16:00:00 20.8 26 Nordeste 39 Nordeste 0 1014.7 -0.8 72
2018-05-09 15:00:00 22.3 32 Nordeste 41 Nordeste 0 1014.8 -0.8 63
2018-05-09 14:00:00 21.8 29 Nordeste 45 Nordeste 0 1015 -0.5 64
2018-05-09 13:00:00 21.2 33 Nordeste 45 Nordeste 0 1015.5 0.3 65
2018-05-09 12:00:00 22 29 Norte 46 Norte 0 1015.6 0.8 56
2018-05-09 11:00:00 20.6 31 Norte 42 Norte 0 1015.5 0.9 63
2018-05-09 10:00:00 19.5 31 Norte 42 Norte 0 1015.2 1.2 69
2018-05-09 09:00:00 18.9 23 Norte 33 Norte 0 1014.8 1.3 67
2018-05-09 08:00:00 18.1 24 Norte 33 Norte 0 1014.6 1 73
2018-05-09 07:00:00 18.1 21 Norte 30 Norte 0 1014 0 69
2018-05-09 06:00:00 17.8 20 Norte 28 Norte 0 1013.5 -1.3 68
2018-05-09 05:00:00 17.6 18 Norte 24 Norte 0 1013.6 -1.9 75
2018-05-09 04:00:00 16.8 15 Norte 24 Norte 0 1014 -1.9 76
2018-05-09 03:00:00 17 16 Norte 28 Norte 0 1014.8 -1 74
2018-05-09 02:00:00 17.3 19 Norte 32 Norte 0 1015.5 -0.2 74
2018-05-09 01:00:00 17.9 19 Norte 33 Norte 0 1015.9 0.8 73
2018-05-09 00:00:00 18.1 27 Norte 41 Norte 0 1015.8 1.4 72
2018-05-08 23:00:00 18.5 33 Norte 42 Norte 0 1015.7 1.5 70
2018-05-08 22:00:00 18.1 23 Norte 41 Norte 0 1015.1 0.7 69
2018-05-08 21:00:00 18.8 30 Norte 46 Norte 0 1014.4 -0.2 65
2018-05-08 20:00:00 19.8 34 Norte 46 Norte 0 1014.2 -0.4 61
2018-05-08 19:00:00 20.6 36 Norte 48 Norte 0 1014.4 -0.8 57
2018-05-08 18:00:00 21.5 32 Norte 50 Norte 0 1014.6 -1.1 57
2018-05-08 17:00:00 22.1 31 Norte 50 Norte 0 1014.6 -1.4 54
2018-05-08 16:00:00 21.5 31 Norte 46 Norte 0 1015.2 -0.8 59
2018-05-08 15:00:00 22.1 34 Norte 45 Norte 0 1015.7 -1 59
2018-05-08 14:00:00 21.1 35 Norte 46 Norte 0 1016 -0.4 64
2018-05-08 13:00:00 21.5 29 Norte 42 Norte 0 1016 -0.2 60
2018-05-08 12:00:00 19.3 27 Norte 45 Noroeste 0 1016.7 0.8 72
2018-05-08 11:00:00 19.5 25 Norte 37 Norte 0 1016.4 0.9 68
2018-05-08 10:00:00 19.2 28 Norte 35 Norte 0 1016.2 1.2 69
2018-05-08 09:00:00 18.6 25 Norte 35 Norte 0 1015.9 1.2 72
2018-05-08 08:00:00 18.2 26 Norte 37 Norte 0 1015.5 0.7 72
2018-05-08 07:00:00 17.9 22 Norte 28 Norte 0 1015 -0.1 73
2018-05-08 06:00:00 17.5 22 Norte 37 Norte 0 1014.7 -0.4 71
2018-05-08 05:00:00 17.8 22 Norte 33 Norte 0 1014.8 -0.5 78
2018-05-08 04:00:00 17.9 23 Norte 32 Norte 0 1015.1 -0.6 77
2018-05-08 03:00:00 18.1 26 Norte 33 Norte 0 1015.1 -0.7 74
2018-05-08 02:00:00 18.4 13 Norte 26 Noroeste 0 1015.3 -0.3 72
2018-05-08 01:00:00 18 21 Noroeste 30 Noroeste 0 1015.7 0.7 71
2018-05-08 00:00:00 18.1 21 Norte 30 Norte 0 1015.8 1.3 70
2018-05-07 23:00:00 18.9 21 Norte 30 Norte 0 1015.6 1.6 69
2018-05-07 22:00:00 18.7 19 Norte 33 Norte 0 1015 1 67
2018-05-07 21:00:00 19.1 26 Norte 39 Norte 0 1014.5 0.5 64
2018-05-07 20:00:00 20.2 28 Norte 39 Norte 0 1014 0.3 57
2018-05-07 19:00:00 21.1 28 Norte 50 Norte 0 1014 0.1 54
2018-05-07 18:00:00 22 27 Noroeste 46 Noroeste 0 1014 0 52
2018-05-07 17:00:00 22.6 21 Noroeste 42 Oeste 0 1013.7 -0.5 50
2018-05-07 16:00:00 22.4 23 Noroeste 41 Noroeste 0 1013.9 -0.6 47
2018-05-07 15:00:00 22.6 25 Noroeste 50 Norte 0 1014 -0.9 47
2018-05-07 14:00:00 22.6 20 Noroeste 45 Noroeste 0 1014.2 -0.6 44
2018-05-07 13:00:00 22 19 Noroeste 45 Sudoeste 0 1014.5 0 42
2018-05-07 12:00:00 21.3 17 Noroeste 37 Noroeste 0 1014.9 1 45
2018-05-07 11:00:00 21 16 Norte 28 Noroeste 0 1014.8 1.4 53
2018-05-07 10:00:00 19.5 13 Norte 28 Norte 0 1014.5 1.4 66
2018-05-07 09:00:00 18.9 14 Norte 26 Noroeste 0 1013.9 1 67
2018-05-07 08:00:00 18.2 8 Noroeste 28 Sur 0 1013.4 0.7 69
2018-05-07 07:00:00 18.2 15 Noroeste 24 Oeste 0 1013.1 0.1 68
2018-05-07 06:00:00 18.3 16 Noroeste 28 Noroeste 0 1012.9 0 69
2018-05-07 05:00:00 18.5 13 Noroeste 21 Noroeste 0 1012.7 -0.7 67
2018-05-07 04:00:00 18.4 0 Calma 9 Norte 0 1013 -0.9 68
2018-05-07 03:00:00 18.5 9 Norte 17 Norte 0 1012.9 -1 68
2018-05-07 02:00:00 18.7 11 Noroeste 21 Oeste 0 1013.4 -0.3 67
2018-05-07 01:00:00 18.8 15 Noroeste 24 Noroeste 0 1013.9 0.6 63
2018-05-07 00:00:00 19 13 Noroeste 21 Noroeste 0 1013.9 1.1 64
2018-05-06 23:00:00 18.9 11 Noroeste 21 Norte 0 1013.7 1.6 65
2018-05-06 22:00:00 19 14 Noroeste 30 Noroeste 0 1013.3 1.6 64
2018-05-06 21:00:00 19.2 17 Noroeste 37 Noroeste 0 1012.8 1.7 63
2018-05-06 20:00:00 20.4 22 Oeste 42 Oeste 0 1012.1 1.1 56
2018-05-06 19:00:00 21.9 23 Oeste 45 Oeste 0 1011.7 0.3 48
2018-05-06 18:00:00 22.7 28 Noroeste 41 Oeste 0 1011.1 -0.6 44
2018-05-06 17:00:00 23.1 28 Oeste 42 Noroeste 0 1011 -1.1 43
2018-05-06 16:00:00 23.6 23 Noroeste 41 Oeste 0 1011.4 -0.9 40
2018-05-06 15:00:00 23.5 30 Noroeste 45 Oeste 0 1011.7 -0.9 41
2018-05-06 14:00:00 21.5 24 Nordeste 33 Nordeste 0 1012.1 -0.3 61
2018-05-06 13:00:00 22.5 23 Norte 35 Norte 0 1012.3 0.2 41
2018-05-06 12:00:00 21.2 15 Noroeste 41 Noroeste 0 1012.6 0.9 48
2018-05-06 11:00:00 20.2 21 Noroeste 39 Oeste 0 1012.4 1.2 54
2018-05-06 10:00:00 18.7 9 Oeste 37 Oeste 0 1012.1 1.1 68
2018-05-06 09:00:00 17.7 21 Oeste 39 Noroeste 0 1011.7 1 76
2018-05-06 08:00:00 18.1 15 Noroeste 39 Noroeste 0 1011.2 0.4 68
2018-05-06 07:00:00 17.9 16 Noroeste 24 Noroeste 0 1011 0.2 68
2018-05-06 06:00:00 18 14 Norte 21 Norte 0 1010.7 -0.5 69
2018-05-06 05:00:00 18 8 Noroeste 17 Norte 0 1010.8 -0.8 68
2018-05-06 04:00:00 18 11 Norte 18 Norte 0 1010.8 -1.5 68
2018-05-06 03:00:00 18 12 Noroeste 18 Norte 0 1011.2 -1.2 69
2018-05-06 02:00:00 17.9 10 Noroeste 15 Norte 0 1011.6 -0.6 65
2018-05-06 01:00:00 18.3 14 Noroeste 18 Noroeste 0 1012.3 0.7 65
2018-05-06 00:00:00 18 12 Noroeste 18 Noroeste 0 1012.4 1.3 66
2018-05-05 23:00:00 17.9 13 Noroeste 24 Noroeste 0 1012.2 1.6 68
2018-05-05 22:00:00 18.3 16 Norte 33 Noroeste 0 1011.6 1 64
2018-05-05 21:00:00 18.9 17 Norte 33 Noroeste 0 1011.1 0.3 58
2018-05-05 20:00:00 20.1 23 Noroeste 42 Noroeste 0 1010.6 0 53
2018-05-05 19:00:00 20.7 28 Noroeste 42 Noroeste 0 1010.6 -0.6 50
2018-05-05 18:00:00 21.5 26 Noroeste 48 Noroeste 0 1010.8 -0.9 48
2018-05-05 17:00:00 22.1 28 Norte 42 Norte 0 1010.6 -1.4 48
2018-05-05 16:00:00 21.6 23 Noroeste 45 Noroeste 0 1011.2 -0.2 49
2018-05-05 15:00:00 21.9 24 Noroeste 46 Norte 0 1011.7 -1 49
2018-05-05 14:00:00 21.3 22 Nordeste 35 Nordeste 0 1012 -1 59
2018-05-05 13:00:00 22.3 30 Nordeste 41 Nordeste 0 1011.4 -0.9 53
2018-05-05 12:00:00 21.6 22 Norte 37 Norte 0 1012.7 0.7 46
2018-05-05 11:00:00 20.8 23 Norte 37 Nordeste 0 1013 0.3 48
2018-05-05 10:00:00 19.1 23 Norte 33 Norte 0 1012.3 0.3 53
2018-05-05 09:00:00 18.3 21 Norte 26 Norte 0 1012 0.6 58
2018-05-05 08:00:00 17.8 14 Norte 24 Norte 0 1012.7 0.8 67
2018-05-05 07:00:00 17.8 13 Norte 18 Norte 0 1012 0.3 58
2018-05-05 06:00:00 17.6 14 Norte 28 Norte 0 1011.4 -0.9 59
2018-05-05 05:00:00 17.6 22 Norte 32 Norte 0 1011.9 -1.2 58
2018-05-05 04:00:00 17.8 21 Norte 28 Norte 0 1011.7 -2 63
2018-05-05 03:00:00 17.8 19 Norte 30 Norte 0 1012.3 -1.3 63
2018-05-05 02:00:00 17.9 27 Norte 33 Norte 0 1013.1 -0.4 56
2018-05-05 01:00:00 18 19 Norte 37 Norte 0 1013.7 0.8 58
2018-05-05 00:00:00 18.1 23 Norte 41 Norte 0 1013.6 1.7 69
2018-05-04 23:00:00 18.3 26 Norte 37 Norte 0 1013.5 2.1 68
2018-05-04 22:00:00 18.6 26 Norte 39 Norte 0 1012.9 1.5 65
2018-05-04 21:00:00 18.7 32 Norte 41 Norte 0 1011.9 0.1 66
2018-05-04 20:00:00 19.9 33 Norte 46 Norte 0 1011.4 -0.4 55
2018-05-04 19:00:00 21.7 28 Norte 45 Norte 0 1011.4 -0.5 48
2018-05-04 18:00:00 21.7 26 Norte 42 Norte 0 1011.8 -0.7 50
2018-05-04 17:00:00 21 27 Nordeste 41 Nordeste 0 1011.8 -0.9 62
2018-05-04 16:00:00 21.4 30 Nordeste 41 Nordeste 0 1011.9 -1.3 62
2018-05-04 15:00:00 21.1 24 Nordeste 35 Nordeste 0 1012.5 -0.8 66
2018-05-04 14:00:00 22.1 28 Nordeste 37 Nordeste 0 1012.7 -0.5 52
2018-05-04 13:00:00 20.4 24 Nordeste 50 Norte 0 1013.2 0.1 63
2018-05-04 12:00:00 20.9 33 Nordeste 41 Norte 0 1013.3 -0.2 58
2018-05-04 11:00:00 20.9 25 Nordeste 39 Nordeste 0 1013.2 0.5 53
2018-05-04 10:00:00 19.1 31 Norte 41 Norte 0 1013.1 1.1 58
2018-05-04 09:00:00 17.9 26 Norte 35 Norte 0 1013.5 1.8 64
2018-05-04 08:00:00 17.6 26 Norte 32 Norte 0 1012.7 0.9 70
2018-05-04 07:00:00 17.6 20 Norte 30 Norte 0 1012 -0.4 62
2018-05-04 06:00:00 17 22 Norte 30 Norte 0 1011.7 -0.7 65
2018-05-04 05:00:00 17.4 21 Norte 37 Norte 0 1011.8 -1.2 64
2018-05-04 04:00:00 17.2 21 Norte 30 Norte 0 1012.4 -1.3 72
2018-05-04 03:00:00 16.9 18 Norte 33 Norte 0 1012.4 -1.4 75
2018-05-04 02:00:00 17.7 24 Norte 33 Norte 0 1013 -0.6 75
2018-05-04 01:00:00 17.2 15 Norte 28 Norte 0 1013.7 0.7 72
2018-05-04 00:00:00 17.6 19 Norte 35 Norte 0 1013.8 1.1 71
2018-05-03 23:00:00 18 21 Norte 35 Norte 0 1013.6 1.5 70
2018-05-03 22:00:00 18.4 27 Norte 37 Norte 0 1013 1 69
2018-05-03 21:00:00 18.9 22 Norte 37 Noroeste 0 1012.7 0.7 64
2018-05-03 20:00:00 19.9 28 Norte 39 Norte 0 1012.1 0.1 60
2018-05-03 19:00:00 21.1 27 Norte 42 Noroeste 0 1012 -0.3 56
2018-05-03 18:00:00 22.2 30 Norte 42 Noroeste 0 1012 -0.9 51
2018-05-03 17:00:00 23.4 30 Noroeste 41 Oeste 0 1012 -1.3 49
2018-05-03 16:00:00 23.7 25 Norte 42 Norte 0 1012.3 -1.3 46
2018-05-03 15:00:00 23.2 25 Norte 35 Norte 0 1012.9 -1.2 44
2018-05-03 14:00:00 20.7 18 Este 30 Nordeste 0 1013.3 -0.7 66
2018-05-03 13:00:00 20.6 22 Nordeste 32 Nordeste 0 1013.6 -0.4 65
2018-05-03 12:00:00 19.9 23 Nordeste 32 Nordeste 0 1014.1 0.5 69
2018-05-03 11:00:00 19.6 23 Nordeste 30 Nordeste 0 1014 0.5 69
2018-05-03 10:00:00 19.4 19 Nordeste 26 Nordeste 0 1014 0.7 71
2018-05-03 09:00:00 18.8 18 Norte 24 Norte 0 1013.6 0.2 71
2018-05-03 08:00:00 17.6 11 Norte 21 Norte 0 1013.5 0.1 76
2018-05-03 07:00:00 17.5 15 Nordeste 21 Nordeste 0 1013.3 -0.3 77
2018-05-03 06:00:00 17.6 13 Nordeste 17 Nordeste 0 1013.4 -0.7 77
2018-05-03 05:00:00 17.6 14 Norte 22 Nordeste 0 1013.4 -1.2 76
2018-05-03 04:00:00 17.7 11 Nordeste 15 Nordeste 0 1013.6 -1.7 75
2018-05-03 03:00:00 17.7 11 Norte 17 Nordeste 0 1014.1 -1.7 74
2018-05-03 02:00:00 17.8 12 Nordeste 15 Nordeste 0 1014.6 -1.1 73
2018-05-03 01:00:00 18 8 Noroeste 21 Noroeste 0 1015.3 0 71
2018-05-03 00:00:00 18.4 16 Oeste 21 Oeste 0 1015.8 0.9 68
2018-05-02 23:00:00 18.7 12 Noroeste 18 Noroeste 0 1015.7 0.7 66
2018-05-02 22:00:00 19 15 Noroeste 32 Noroeste 0 1015.3 0.5 63
2018-05-02 21:00:00 19.3 21 Noroeste 30 Noroeste 0 1014.9 0 59
2018-05-02 20:00:00 19.9 22 Noroeste 32 Noroeste 0 1015 0.1 55
2018-05-02 19:00:00 19.2 21 Este 39 Nordeste 0 1014.8 -0.9 66
2018-05-02 18:00:00 20.3 31 Nordeste 42 Nordeste 0 1014.9 -1.3 62
2018-05-02 17:00:00 22.5 27 Norte 46 Nordeste 0 1014.9 -1.7 43
2018-05-02 16:00:00 21.6 30 Nordeste 41 Nordeste 0 1015.7 -1.2 55
2018-05-02 15:00:00 22 29 Nordeste 41 Nordeste 0 1016.2 -0.9 52
2018-05-02 14:00:00 21.6 29 Nordeste 39 Nordeste 0 1016.6 -0.6 51
2018-05-02 13:00:00 21.7 32 Norte 42 Norte 0 1016.9 -0.2 48
2018-05-02 12:00:00 20.7 30 Nordeste 39 Nordeste 0 1017.1 0.4 56
2018-05-02 11:00:00 19.2 28 Nordeste 37 Norte 0 1017.2 0.9 61
2018-05-02 10:00:00 18.8 26 Norte 50 Norte 0 1017.1 1.2 58
2018-05-02 09:00:00 17.9 24 Norte 32 Norte 0 1016.7 1.1 63
2018-05-02 08:00:00 15.4 12 Norte 21 Norte 0 1016.3 0.5 68
2018-05-02 07:00:00 14.8 19 Norte 24 Norte 0 1015.9 -0.5 69
2018-05-02 06:00:00 14.8 19 Norte 24 Norte 0 1015.6 -1.2 67
2018-05-02 05:00:00 15.2 21 Norte 28 Norte 0 1015.8 -1.5 64
2018-05-02 04:00:00 15.2 19 Norte 24 Norte 0 1016.4 -1.5 62
2018-05-02 03:00:00 15.6 18 Norte 24 Norte 0 1016.8 -1.2 68
2018-05-02 02:00:00 15.9 17 Norte 22 Noroeste 0 1017.3 -0.5 66
2018-05-02 01:00:00 16.3 16 Norte 30 Norte 0 1017.9 0.2 68
2018-05-02 00:00:00 16.9 24 Norte 33 Norte 0 1018 0.7 69
2018-05-01 23:00:00 17.3 26 Nordeste 37 Norte 0 1017.8 0.5 67
2018-05-01 22:00:00 17.4 22 Norte 32 Norte 0 1017.7 0.6 63
2018-05-01 21:00:00 18.1 25 Norte 37 Norte 0 1017.3 0.4 59
2018-05-01 20:00:00 19.1 30 Norte 45 Norte 0 1017.3 0.2 55
2018-05-01 19:00:00 20.2 33 Norte 46 Norte 0 1017.1 -0.3 49
2018-05-01 18:00:00 21.9 35 Norte 50 Noroeste 0 1016.9 -0.7 42
2018-05-01 17:00:00 22.4 34 Norte 48 Norte 0 1017.1 -1.1 42
2018-05-01 16:00:00 21.1 32 Nordeste 45 Norte 0 1017.4 -0.8 56
2018-05-01 15:00:00 21.5 35 Nordeste 45 Norte 0 1017.6 -1 54
2018-05-01 14:00:00 21.7 30 Nordeste 50 Nordeste 0 1018.2 -0.1 48
2018-05-01 13:00:00 22 36 Norte 48 Nordeste 0 1018.2 -0.2 41
2018-05-01 12:00:00 21.2 35 Norte 46 Norte 0 1018.6 0.7 46
2018-05-01 11:00:00 20.2 31 Norte 45 Norte 0 1018.3 0.8 52
2018-05-01 10:00:00 18.3 24 Norte 39 Norte 0 1018.4 1.3 65
2018-05-01 09:00:00 18 28 Norte 37 Norte 0 1017.9 1.4 63
2018-05-01 08:00:00 16.8 19 Norte 28 Norte 0 1017.5 1 69
2018-05-01 07:00:00 16 23 Norte 32 Norte 0 1017.1 0.2 70
2018-05-01 06:00:00 15.8 23 Norte 30 Norte 0 1016.5 -0.8 68
2018-05-01 05:00:00 16.5 20 Norte 28 Norte 0 1016.5 -1.4 69
2018-05-01 04:00:00 16 20 Norte 28 Norte 0 1016.9 -1 67
2018-05-01 03:00:00 16.2 19 Norte 28 Norte 0 1017.3 -0.7 66
2018-05-01 02:00:00 16.3 15 Norte 26 Norte 0 1017.9 0.5 65
2018-05-01 01:00:00 16.4 18 Norte 22 Norte 0 1017.9 1.1 64
2018-05-01 00:00:00 16.7 17 Norte 32 Norte 0 1018 1.6 61
2018-04-30 23:00:00 16.9 22 Norte 33 Norte 0 1017.4 1.3 63
2018-04-30 22:00:00 17.1 24 Norte 37 Norte 0 1016.8 1.1 61
2018-04-30 21:00:00 17.7 28 Norte 41 Norte 0 1016.4 0.7 56
2018-04-30 20:00:00 18.9 33 Norte 42 Norte 0 1016.1 0.1 47
2018-04-30 19:00:00 20.6 33 Norte 46 Norte 0 1015.7 -0.2 43
2018-04-30 18:00:00 20.4 39 Nordeste 50 Nordeste 0 1015.7 -0.2 58
2018-04-30 17:00:00 20 34 Nordeste 48 Nordeste 0 1016 -0.3 59
2018-04-30 16:00:00 21.1 31 Norte 48 Nordeste 0 1015.9 -0.8 49
2018-04-30 15:00:00 20.5 30 Nordeste 42 Nordeste 0 1015.9 -1 55
2018-04-30 14:00:00 20.7 26 Nordeste 35 Nordeste 0 1016.3 -0.4 51
2018-04-30 13:00:00 19.4 21 Nordeste 28 Nordeste 0 1016.7 0.3 56
2018-04-30 12:00:00 19.1 17 Nordeste 28 Nordeste 0 1016.9 0.5 58
2018-04-30 11:00:00 18.7 26 Nordeste 35 Nordeste 0 1016.7 0.8 58
2018-04-30 10:00:00 19.2 27 Nordeste 39 Norte 0 1016.4 0.6 49
2018-04-30 09:00:00 17.5 21 Norte 33 Norte 0 1016.4 0.5 55
2018-04-30 08:00:00 16.7 21 Norte 30 Norte 0 1015.9 0.1 56
2018-04-30 07:00:00 16.3 22 Norte 32 Norte 0 1015.8 -0.1 57
2018-04-30 06:00:00 16.2 26 Norte 35 Norte 0 1015.9 -0.1 57
2018-04-30 05:00:00 15.9 22 Norte 37 Norte 0 1015.8 -0.6 59
2018-04-30 04:00:00 15.9 25 Norte 39 Norte 0 1015.9 -1.2 59
2018-04-30 03:00:00 15.9 23 Norte 39 Norte 0 1016 -1.4 59
2018-04-30 02:00:00 16.1 26 Norte 35 Norte 0 1016.4 -0.9 58
2018-04-30 01:00:00 16.3 26 Norte 39 Norte 0 1017.1 0.3 58
2018-04-30 00:00:00 16.7 29 Norte 42 Norte 0 1017.4 1.1 58
2018-04-29 23:00:00 16.8 25 Norte 46 Norte 0 1017.3 1.3 57
2018-04-29 22:00:00 16.9 35 Norte 46 Norte 0 1016.8 0.9 58
2018-04-29 21:00:00 18 30 Norte 42 Norte 0 1016.3 0.5 59
2018-04-29 20:00:00 19 33 Norte 46 Norte 0 1016 0.2 53
2018-04-29 19:00:00 20.1 31 Norte 48 Norte 0 1015.9 0.1 45
2018-04-29 18:00:00 20.9 31 Norte 48 Norte 0 1015.8 -0.7 42
2018-04-29 17:00:00 21 35 Nordeste 45 Nordeste 0 1015.8 -1.3 48
2018-04-29 16:00:00 20.8 33 Nordeste 45 Nordeste 0 1015.8 -1.9 53
2018-04-29 15:00:00 20.8 35 Nordeste 45 Nordeste 0 1016.5 -1.7 51
2018-04-29 14:00:00 21 31 Nordeste 42 Nordeste 0 1017.1 -1.3 51
2018-04-29 13:00:00 20.8 31 Nordeste 41 Nordeste 0 1017.7 -0.4 50
2018-04-29 12:00:00 20.2 28 Nordeste 37 Nordeste 0 1018.2 0.8 53
2018-04-29 11:00:00 19.6 28 Nordeste 42 Nordeste 0 1018.4 1.6 48
2018-04-29 10:00:00 17.9 26 Norte 39 Norte 0 1018.1 1.8 57
2018-04-29 09:00:00 17.3 32 Norte 48 Norte 0 1017.4 1.1 56
2018-04-29 08:00:00 16.3 33 Norte 45 Norte 0 1016.8 0.4 60
2018-04-29 07:00:00 16 21 Norte 32 Norte 0 1016.3 -0.3 65
2018-04-29 06:00:00 16.3 27 Norte 48 Norte 0 1016.3 0.1 63
2018-04-29 05:00:00 16.7 31 Norte 46 Nordeste 0 1016.4 -0.5 64
2018-04-29 04:00:00 16.3 27 Norte 46 Norte 0 1016.6 -1.2 66
2018-04-29 03:00:00 16.6 39 Norte 48 Norte 0 1016.2 -1.4 65
2018-04-29 02:00:00 17.1 35 Norte 46 Norte 0 1016.9 -0.3 68
2018-04-29 01:00:00 17.4 36 Norte 48 Norte 0 1017.8 1.1 68
2018-04-29 00:00:00 17.8 37 Norte 48 Norte 0 1017.6 1.7 74
2018-04-28 23:00:00 17.9 41 Norte 52 Nordeste 0 1017.2 1.9 77
2018-04-28 22:00:00 18.5 36 Norte 46 Norte 0 1016.7 1.6 72
2018-04-28 21:00:00 19.1 34 Norte 50 Norte 0 1015.9 1 64
2018-04-28 20:00:00 19.8 38 Norte 52 Norte 0 1015.3 0.5 60
2018-04-28 19:00:00 21.4 39 Norte 48 Norte 0 1015.1 -0.3 53
2018-04-28 18:00:00 22.1 36 Norte 54 Norte 0 1014.9 -0.7 51
2018-04-28 17:00:00 23.1 40 Norte 50 Norte 0 1014.8 -1.2 47
2018-04-28 16:00:00 23.6 35 Norte 54 Norte 0 1015.4 -0.7 44
2018-04-28 15:00:00 23.7 31 Norte 46 Norte 0 1015.6 -0.7 46
2018-04-28 14:00:00 22.2 32 Nordeste 45 Nordeste 0 1016 -0.2 59
2018-04-28 13:00:00 21.8 35 Nordeste 45 Nordeste 0 1016.1 0.2 60
2018-04-28 12:00:00 20.9 30 Nordeste 39 Nordeste 0 1016.3 0.7 63
2018-04-28 11:00:00 20.5 30 Nordeste 41 Nordeste 0 1016.2 1.1 63
2018-04-28 10:00:00 19.7 28 Norte 45 Norte 0 1015.9 1.5 65
2018-04-28 09:00:00 17.8 24 Norte 37 Norte 0 1015.6 1.7 73
2018-04-28 08:00:00 16.3 20 Norte 30 Norte 0 1015.1 1.3 78
2018-04-28 07:00:00 15.9 21 Norte 28 Norte 0 1014.4 0.9 80
2018-04-28 06:00:00 15.8 18 Norte 24 Norte 0 1013.9 0 80
2018-04-28 05:00:00 16.2 16 Norte 28 Norte 0 1013.8 -0.9 79
2018-04-28 04:00:00 16.4 24 Norte 33 Norte 0 1013.5 -1.7 78
2018-04-28 03:00:00 16.8 27 Norte 39 Norte 0 1013.9 -1.7 77
2018-04-28 02:00:00 17 27 Norte 37 Norte 0 1014.7 -0.7 75
2018-04-28 01:00:00 17.1 26 Norte 33 Norte 0 1015.2 0.3 74
2018-04-28 00:00:00 17.5 22 Norte 35 Norte 0 1015.6 1.2 74
2018-04-27 23:00:00 17.8 27 Norte 35 Norte 0 1015.4 1.6 72
2018-04-27 22:00:00 18.1 29 Norte 39 Norte 0 1014.9 1.8 71
2018-04-27 21:00:00 18.6 30 Norte 46 Norte 0 1014.4 1.9 72
2018-04-27 20:00:00 19.7 31 Norte 42 Norte 0 1013.8 1.4 67
2018-04-27 19:00:00 21.1 32 Norte 50 Norte 0 1013.1 0.1 62
2018-04-27 18:00:00 22.6 33 Norte 45 Norte 0 1012.5 -1.2 57
2018-04-27 17:00:00 21.4 32 Nordeste 45 Nordeste 0 1012.4 -1.4 68
2018-04-27 16:00:00 21.6 34 Nordeste 45 Nordeste 0 1013 -1.4 66
2018-04-27 15:00:00 21.3 27 Nordeste 37 Nordeste 0 1013.7 -1.1 65
2018-04-27 14:00:00 21.5 28 Nordeste 35 Nordeste 0 1013.8 -1 64
2018-04-27 13:00:00 21 26 Nordeste 35 Nordeste 0 1014.4 0.1 64
2018-04-27 12:00:00 20.5 27 Nordeste 39 Norte 0 1014.8 0.9 65
2018-04-27 11:00:00 20.1 27 Nordeste 41 Norte 0 1014.8 0.9 65
2018-04-27 10:00:00 19.1 30 Norte 42 Norte 0 1014.3 0.7 67
2018-04-27 09:00:00 18 30 Norte 41 Norte 0 1013.9 0.3 72
2018-04-27 08:00:00 16.6 23 Norte 37 Norte 0 1013.9 0.4 76
2018-04-27 07:00:00 16.4 24 Norte 35 Norte 0 1013.6 -0.3 76
2018-04-27 06:00:00 16.5 19 Norte 42 Norte 0 1013.6 -0.9 76
2018-04-27 05:00:00 16.7 31 Norte 41 Norte 0 1013.5 -1.8 76
2018-04-27 04:00:00 16.9 30 Norte 45 Norte 0 1013.9 -2 78
2018-04-27 03:00:00 17 30 Norte 46 Norte 0 1014.5 -1.6 77
2018-04-27 02:00:00 17.1 28 Norte 39 Norte 0 1015.3 -0.6 78
2018-04-27 01:00:00 17.3 24 Norte 35 Norte 0 1015.9 0.6 78
2018-04-27 00:00:00 17.6 26 Norte 37 Norte 0 1016.1 1.5 77
2018-04-26 23:00:00 17.7 27 Norte 41 Norte 0 1015.9 1.9 76
2018-04-26 22:00:00 18.1 30 Norte 46 Norte 0 1015.3 1.1 75
2018-04-26 21:00:00 18.4 36 Norte 55 Norte 0 1014.6 0.6 74
2018-04-26 20:00:00 19.2 42 Norte 52 Norte 0 1014 -0.1 72
2018-04-26 19:00:00 20.6 32 Norte 50 Norte 0 1014.2 0.3 67
2018-04-26 18:00:00 21.7 37 Norte 50 Norte 0 1014 -0.7 63
2018-04-26 17:00:00 22.5 39 Norte 50 Norte 0 1014.1 -1.3 60
2018-04-26 16:00:00 22.9 34 Norte 46 Norte 0 1013.9 -2 58
2018-04-26 15:00:00 22.1 27 Norte 48 Norte 0 1014.7 -1.4 59
2018-04-26 14:00:00 21.3 33 Norte 42 Norte 0 1015.4 -0.5 62
2018-04-26 13:00:00 20.1 33 Norte 48 Norte 0 1015.9 0.1 66
2018-04-26 12:00:00 19.8 32 Norte 48 Norte 0 1016.1 0.3 67
2018-04-26 11:00:00 19.3 39 Norte 50 Noroeste 0 1015.9 0.3 69
2018-04-26 10:00:00 19.1 31 Norte 42 Norte 0 1015.8 0.9 67
2018-04-26 09:00:00 18.5 29 Norte 42 Norte 0 1015.8 1.2 68
2018-04-26 08:00:00 17.9 29 Norte 42 Norte 0 1015.6 0.7 69
2018-04-26 07:00:00 17.8 30 Norte 41 Norte 0 1014.9 -0.2 72
2018-04-26 06:00:00 17.8 26 Norte 35 Norte 0 1014.6 -1 75
2018-04-26 05:00:00 17.3 22 Norte 39 Norte 0 1014.9 -1.7 72
2018-04-26 04:00:00 17.3 26 Norte 37 Norte 0 1015.1 -2.1 73
2018-04-26 03:00:00 17.3 30 Norte 41 Norte 0 1015.6 -2 71
2018-04-26 02:00:00 17.7 19 Norte 39 Norte 0 1016.6 -0.7 72
2018-04-26 01:00:00 17.9 27 Norte 39 Norte 0 1017.2 -0.1 69
2018-04-26 00:00:00 18.1 24 Norte 42 Norte 0 1017.6 1.1 69
2018-04-25 23:00:00 18.1 33 Norte 46 Norte 0 1017.3 1.5 67
2018-04-25 22:00:00 18.5 31 Norte 41 Norte 0 1017.3 1.5 68
2018-04-25 21:00:00 18.8 29 Norte 46 Norte 0 1016.5 0.8 70
2018-04-25 20:00:00 19.3 31 Norte 46 Norte 0 1015.8 0.4 70
2018-04-25 19:00:00 20 35 Norte 50 Norte 0 1015.8 0.1 68
2018-04-25 18:00:00 20.6 35 Norte 46 Norte 0 1015.7 -0.6 66
2018-04-25 17:00:00 21.5 35 Norte 55 Norte 0 1015.4 -1.1 62
2018-04-25 16:00:00 21.9 36 Norte 54 Norte 0 1015.7 -1.4 60
2018-04-25 15:00:00 22.7 41 Norte 50 Norte 0 1016.3 -1.5 56
2018-04-25 14:00:00 22.5 37 Norte 55 Norte 0 1016.5 -1.3 54
2018-04-25 13:00:00 22.6 38 Norte 55 Norte 0 1017.1 -0.5 53
2018-04-25 12:00:00 20.8 34 Norte 46 Norte 0 1017.8 0.5 59
2018-04-25 11:00:00 20.1 32 Norte 42 Norte 0 1017.8 0.8 60
2018-04-25 10:00:00 19.1 30 Norte 41 Norte 0 1017.6 1.1 65
2018-04-25 09:00:00 18.4 26 Norte 35 Norte 0 1017.3 1.2 69
2018-04-25 08:00:00 18 19 Norte 35 Norte 0 1017 1.1 74
2018-04-25 07:00:00 17.9 21 Norte 32 Norte 0 1016.5 0.5 76
2018-04-25 06:00:00 17.8 24 Norte 33 Norte 0 1016.1 -0.1 76
2018-04-25 05:00:00 17.9 24 Norte 32 Norte 0 1015.9 -0.7 76
2018-04-25 04:00:00 17.9 23 Norte 32 Norte 0 1016 -0.7 76
2018-04-25 03:00:00 18 25 Norte 39 Norte 0 1016.2 -0.7 75
2018-04-25 02:00:00 18 30 Norte 45 Norte 0 1016.6 -0.2 75
2018-04-25 01:00:00 18.3 35 Norte 48 Norte 0 1016.7 0.3 74
2018-04-25 00:00:00 18.5 43 Norte 54 Norte 0 1016.9 1 73
2018-04-24 23:00:00 18.8 32 Norte 45 Norte 0 1016.8 1.1 73
2018-04-24 22:00:00 18.9 28 Norte 45 Norte 0 1016.4 0.9 72
2018-04-24 21:00:00 19 28 Norte 45 Noroeste 0 1015.9 0.5 65
2018-04-24 20:00:00 19.7 38 Norte 48 Norte 0 1015.7 0 63
2018-04-24 19:00:00 21.2 38 Norte 54 Norte 0 1015.5 -0.4 57
2018-04-24 18:00:00 22.5 36 Norte 55 Noroeste 0 1015.4 -0.5 54
2018-04-24 17:00:00 23 33 Norte 52 Norte 0 1015.7 -0.3 53
2018-04-24 16:00:00 23.6 33 Norte 50 Norte 0 1015.9 -0.1 52
2018-04-24 15:00:00 24 35 Norte 48 Norte 0 1015.9 -0.2 51
2018-04-24 14:00:00 23.8 36 Norte 48 Norte 0 1016 0.2 52
2018-04-24 13:00:00 22.9 37 Norte 48 Norte 0 1016 0.6 56
2018-04-24 12:00:00 22 35 Norte 46 Norte 0 1016.1 1.3 60
2018-04-24 11:00:00 21.2 31 Norte 41 Norte 0 1015.8 1.9 59
2018-04-24 10:00:00 19.9 30 Norte 45 Norte 0 1015.4 2.2 67
2018-04-24 09:00:00 18.2 24 Norte 37 Norte 0 1014.8 2.2 77
2018-04-24 08:00:00 16.9 16 Norte 32 Norte 0 1013.9 1.8 80
2018-04-24 07:00:00 16.9 23 Norte 32 Norte 0 1013.2 0.8 80
2018-04-24 06:00:00 16.9 19 Noroeste 35 Noroeste 0 1012.6 0.3 81
2018-04-24 05:00:00 16.8 19 Noroeste 32 Noroeste 0 1012.1 -1 82
2018-04-24 04:00:00 16.9 20 Noroeste 30 Noroeste 0 1012.4 -0.7 81
2018-04-24 03:00:00 16.7 15 Noroeste 28 Noroeste 0 1012.3 -1 84
2018-04-24 02:00:00 17.1 15 Noroeste 39 Noroeste 0 1013.1 -0.2 72
2018-04-24 01:00:00 17.4 23 Noroeste 48 Noroeste 0 1013.1 0.3 77
2018-04-24 00:00:00 17.6 25 Noroeste 45 Noroeste 0.1 1013.3 1 77